Startpagina
METAR-TAF:

METAR-TAF

Vliegvelden :

Productieplatform

Goeree Le, Nederland

breedte: 51-55-33N, lengte: 3-40-12E, hoogte: 19 m

Actueel weer

Dit bericht is 31 minuten geleden gemaakt, om 14:55 UTC
Wind 8 kt uit het oosten
Temperatuur 4°C
Vochtigheid 48%
Druk 1018 hPa
Zicht 10 km of meer

METAR: EHSC 201455Z AUTO 08008KT 9999 ///////// 04/M06 Q1018 W07/H4

Tijdstip: 16:26 (15:26 UTC)


TAF: ontbreekt

Waarnemingen en weersverwachtingen van meer dan 4000 vliegvelden (METAR en TAF).

De beschikbare stations zijn de gele en rode punten op de kaart.

Ga met uw muis naar het station om de naam te zien.

Klik dan om waarnemingen en weersverwachtingen te zien.

kaart wijzigen: klik op de groene knoppen met een zwart kruis om in te zoomen, op de groene knop met een streepje om uit te zoomen of op de groene pijlen voor aangrenzende kaarten.


METAR-TAF: